Time;durP1;ratioP1;P1;durP2;ratioP2;P2;SDS_P1;SDS_P2;PMS_P1;PMS_P2;Temp;Humidity;BMP_temperature;BMP_pressure;BME280_temperature;BME280_humidity;BME280_pressure;Samples;Min_cycle;Max_cycle;Signal;HPM_P1;HPM_P2
2022/05/10 00:05:04;;;;;;;12.97;7.80;;;8.60;99.90;;;;;;10464042;28;20210;-92
2022/05/10 00:10:26;;;;;;;13.80;7.97;;;8.70;99.90;;;;;;10420391;28;20218;-91
2022/05/10 00:15:48;;;;;;;13.37;7.50;;;8.70;99.90;;;;;;10439161;28;20222;-93
2022/05/10 00:21:17;;;;;;;14.10;7.27;;;8.60;1.00;;;;;;10410586;28;20229;-92
2022/05/10 00:26:38;;;;;;;13.30;7.73;;;8.60;1.00;;;;;;10410711;28;20210;-92
2022/05/10 00:31:59;;;;;;;13.97;7.90;;;8.40;1.00;;;;;;10424314;28;20619;-91
2022/05/10 00:37:22;;;;;;;16.73;8.80;;;;;;;;;;10437187;28;20209;-93
2022/05/10 00:42:57;;;;;;;16.47;7.87;;;8.30;99.90;;;;;;10439420;28;20190;-92
2022/05/10 00:48:32;;;;;;;14.07;7.43;;;8.30;1.00;;;;;;10425785;28;20265;-82
2022/05/10 00:54:08;;;;;;;13.33;7.20;;;8.20;1.00;;;;;;10439267;28;20263;-86
2022/05/10 00:59:41;;;;;;;13.20;7.47;;;8.30;21.10;;;;;;10410339;28;20245;-91
2022/05/10 01:05:26;;;;;;;12.93;7.27;;;8.20;99.90;;;;;;10422989;28;20203;-87
2022/05/10 01:11:10;;;;;;;11.73;7.17;;;8.20;99.90;;;;;;10422581;28;20270;-93
2022/05/10 01:16:32;;;;;;;15.70;8.13;;;8.10;1.00;;;;;;10422877;28;20205;-92
2022/05/10 01:21:57;;;;;;;10.63;5.93;;;8.00;1.00;;;;;;10427067;28;20374;-93
2022/05/10 01:27:42;;;;;;;12.87;7.10;;;8.10;1.00;;;;;;10446217;28;20198;-90
2022/05/10 01:39:04;;;;;;;10.70;5.73;;;8.10;69.40;;;;;;10444184;28;20203;-92
2022/05/10 01:44:55;;;;;;;10.40;5.20;;;8.20;39.50;;;;;;10430088;28;20272;-91
2022/05/10 01:50:45;;;;;;;11.20;5.37;;;8.10;63.50;;;;;;10415863;28;20205;-92
2022/05/10 01:56:25;;;;;;;9.83;4.93;;;8.20;1.00;;;;;;10432751;28;20242;-94
2022/05/10 02:01:46;;;;;;;11.90;6.20;;;8.30;1.00;;;;;;10415968;28;20275;-92
2022/05/10 02:07:17;;;;;;;10.47;5.97;;;8.20;1.00;;;;;;10442680;28;20207;-93
2022/05/10 02:12:44;;;;;;;10.20;6.17;;;8.30;1.00;;;;;;10429209;28;20238;-92
2022/05/10 02:18:18;;;;;;;9.97;6.13;;;8.20;1.00;;;;;;10428727;28;20209;-92
2022/05/10 02:24:03;;;;;;;11.47;6.10;;;8.20;1.00;;;;;;10428942;28;20273;-93
2022/05/10 02:29:39;;;;;;;11.87;5.90;;;8.10;1.00;;;;;;10428248;28;20205;-92
2022/05/10 02:35:05;;;;;;;12.93;6.13;;;8.00;52.40;;;;;;10427177;28;20314;-90
2022/05/10 02:40:26;;;;;;;11.23;6.27;;;8.00;99.90;;;;;;10442204;28;20257;-83
2022/05/10 02:45:48;;;;;;;10.40;5.07;;;7.90;1.00;;;;;;10413432;28;20431;-83
2022/05/10 02:51:09;;;;;;;14.90;6.97;;;7.90;1.00;;;;;;10413465;28;20225;-84
2022/05/10 02:56:31;;;;;;;8.43;5.20;;;7.70;99.90;;;;;;10415088;28;20244;-89
2022/05/10 03:02:20;;;;;;;13.70;6.60;;;7.80;99.90;;;;;;10413680;28;20281;-89
2022/05/10 03:07:42;;;;;;;10.67;6.40;;;7.90;1.00;;;;;;10441161;28;20226;-92
2022/05/10 03:13:03;;;;;;;11.27;6.70;;;7.90;99.90;;;;;;10442032;28;20524;-93
2022/05/10 03:18:25;;;;;;;12.17;7.20;;;7.90;68.60;;;;;;10427354;28;20266;-93
2022/05/10 03:23:46;;;;;;;11.63;6.90;;;7.90;99.90;;;;;;10412797;28;20203;-93
2022/05/10 03:29:08;;;;;;;13.00;7.10;;;7.80;99.90;;;;;;10426759;28;20267;-91
2022/05/10 03:40:10;;;;;;;22.73;7.53;;;7.90;99.90;;;;;;10424812;28;20211;-92
2022/05/10 03:45:31;;;;;;;12.40;7.13;;;7.90;99.90;;;;;;10423437;28;20404;-91
2022/05/10 03:50:52;;;;;;;14.83;7.80;;;8.00;1.00;;;;;;10438726;28;20207;-90
2022/05/10 03:56:14;;;;;;;10.53;6.87;;;8.00;1.00;;;;;;10412210;28;20241;-92
2022/05/10 04:01:35;;;;;;;13.33;6.00;;;8.10;1.00;;;;;;10412118;28;20209;-91
2022/05/10 04:06:56;;;;;;;11.37;5.70;;;8.10;1.00;;;;;;10425034;28;20201;-89
2022/05/10 04:12:18;;;;;;;12.80;5.60;;;8.20;1.00;;;;;;10411022;28;20273;-92
2022/05/10 04:17:39;;;;;;;11.37;5.93;;;8.30;99.90;;;;;;10424924;28;20211;-92
2022/05/10 04:23:01;;;;;;;9.23;4.90;;;8.40;99.90;;;;;;10438126;28;20209;-89
2022/05/10 04:28:22;;;;;;;12.23;4.30;;;8.50;99.90;;;;;;10410817;28;20227;-92
2022/05/10 04:33:43;;;;;;;10.77;4.93;;;8.50;99.90;;;;;;10424606;28;20241;-94
2022/05/10 04:39:05;;;;;;;7.67;4.67;;;8.50;99.90;;;;;;10438361;28;20202;-90
2022/05/10 04:44:26;;;;;;;11.00;5.10;;;8.50;99.90;;;;;;10414775;28;20502;-92
2022/05/10 04:49:47;;;;;;;7.70;4.70;;;8.70;99.90;;;;;;10409880;28;20230;-93
2022/05/10 04:55:10;;;;;;;8.07;5.00;;;8.80;97.80;;;;;;10423632;28;20238;-90
2022/05/10 05:00:32;;;;;;;9.73;5.37;;;9.00;10.40;;;;;;10424736;28;20203;-93
2022/05/10 05:05:53;;;;;;;8.93;4.77;;;9.00;1.00;;;;;;10424330;28;20246;-89
2022/05/10 05:11:14;;;;;;;6.60;4.33;;;9.20;1.00;;;;;;10418863;28;20206;-84
2022/05/10 05:16:38;;;;;;;8.47;4.27;;;9.30;1.00;;;;;;10427966;28;20256;-81
2022/05/10 05:22:00;;;;;;;6.03;3.77;;;9.40;99.90;;;;;;10427961;28;20510;-82
2022/05/10 05:27:22;;;;;;;7.67;3.80;;;9.60;99.90;;;;;;10427359;28;20199;-82
2022/05/10 05:32:45;;;;;;;7.43;4.80;;;9.90;99.90;;;;;;10441711;28;20269;-82
2022/05/10 05:38:07;;;;;;;7.87;4.37;;;10.20;88.90;;;;;;10427380;28;20212;-83
2022/05/10 05:43:29;;;;;;;11.77;4.43;;;10.70;1.00;;;;;;10423147;28;20197;-83
2022/05/10 05:48:50;;;;;;;10.10;4.63;;;11.10;1.00;;;;;;10422203;28;20226;-86
2022/05/10 05:54:11;;;;;;;10.15;4.35;;;11.70;99.90;;;;;;10407746;28;20230;-84
2022/05/10 05:59:33;;;;;;;13.77;5.07;;;12.30;99.90;;;;;;10409170;28;20528;-92
2022/05/10 06:04:58;;;;;;;6.53;4.05;;;12.80;1.00;;;;;;10421920;28;20237;-86
2022/05/10 06:10:19;;;;;;;8.40;4.05;;;13.40;1.00;;;;;;10428886;28;20568;-82
2022/05/10 06:15:41;;;;;;;10.55;3.85;;;14.00;1.00;;;;;;10429032;28;20222;-83
2022/05/10 06:21:02;;;;;;;10.45;3.92;;;14.60;99.90;;;;;;10429587;28;20219;-82
2022/05/10 06:26:32;;;;;;;6.22;3.92;;;15.20;99.90;;;;;;10433797;28;20211;-84
2022/05/10 06:31:54;;;;;;;8.75;3.38;;;15.70;99.90;;;;;;10435173;28;20249;-91
2022/05/10 06:43:00;;;;;;;11.15;3.47;;;16.90;1.00;;;;;;10437888;28;20206;-84
2022/05/10 06:48:25;;;;;;;9.82;3.38;;;17.40;1.00;;;;;;10455237;28;20188;-84
2022/05/10 06:53:50;;;;;;;9.02;5.55;;;17.90;1.00;;;;;;10423533;28;20533;-93
2022/05/10 06:59:12;;;;;;;8.63;4.05;;;18.50;1.00;;;;;;10435620;28;20192;-85
2022/05/10 07:04:33;;;;;;;12.77;5.90;;;18.90;1.00;;;;;;10394922;28;20251;-85
2022/05/10 07:09:54;;;;;;;7.25;3.35;;;19.20;1.00;;;;;;10402655;28;20203;-85
2022/05/10 07:15:18;;;;;;;10.98;2.92;;;19.60;1.00;;;;;;10421227;28;20224;-86
2022/05/10 07:20:43;;;;;;;10.60;3.10;;;20.10;1.00;;;;;;10421251;28;20216;-85
2022/05/10 07:26:05;;;;;;;10.55;2.83;;;20.60;1.00;;;;;;10436143;28;20207;-85
2022/05/10 07:31:27;;;;;;;5.05;2.80;;;20.70;1.00;;;;;;10419235;28;20238;-84
2022/05/10 07:36:48;;;;;;;9.70;2.30;;;21.10;1.00;;;;;;10449357;28;20228;-86
2022/05/10 07:42:09;;;;;;;9.45;2.70;;;21.40;1.00;;;;;;10406331;28;20397;-87
2022/05/10 07:47:34;;;;;;;5.85;2.22;;;22.00;1.00;;;;;;10406687;28;20197;-86
2022/05/10 07:52:55;;;;;;;5.53;2.30;;;22.70;99.90;;;;;;10433617;28;20263;-88
2022/05/10 07:58:17;;;;;;;6.55;2.15;;;23.00;99.90;;;;;;10434337;28;20283;-87
2022/05/10 08:03:39;;;;;;;6.38;4.15;;;23.50;99.90;;;;;;10405663;28;20243;-86
2022/05/10 08:09:00;;;;;;;6.63;2.53;;;23.80;99.90;;;;;;10420979;28;20204;-83
2022/05/10 08:14:22;;;;;;;3.83;2.10;;;23.70;99.90;;;;;;10419332;28;20235;-84
2022/05/10 08:19:45;;;;;;;3.35;1.85;;;23.40;99.90;;;;;;10432949;28;20199;-84
2022/05/10 08:25:08;;;;;;;6.53;2.20;;;24.10;99.90;;;;;;10434085;28;20495;-91
2022/05/10 08:30:30;;;;;;;5.63;2.30;;;24.30;99.90;;;;;;10432738;28;20430;-89
2022/05/10 08:35:53;;;;;;;6.82;3.58;;;24.40;99.90;;;;;;10433692;28;20232;-85
2022/05/10 08:41:55;;;;;;;5.10;2.80;;;24.70;99.90;;;;;;10419920;28;20211;-88
2022/05/10 08:47:19;;;;;;;2.42;1.83;;;24.70;99.90;;;;;;10405133;28;20200;-86
2022/05/10 08:52:46;;;;;;;5.57;2.65;;;24.90;99.90;;;;;;10417339;28;20476;-83
2022/05/10 08:58:16;;;;;;;5.43;2.90;;;25.20;99.90;;;;;;10423587;28;20211;-84
2022/05/10 09:04:00;;;;;;;6.88;2.45;;;25.40;99.90;;;;;;10414236;28;20227;-87
2022/05/10 09:09:28;;;;;;;7.90;2.42;;;25.50;99.90;;;;;;10417887;28;20204;-86
2022/05/10 09:15:03;;;;;;;5.70;1.77;;;25.40;99.90;;;;;;10422072;28;20235;-83
2022/05/10 09:20:43;;;;;;;5.57;2.10;;;25.30;99.90;;;;;;10433351;28;20412;-88
2022/05/10 09:26:04;;;;;;;6.88;1.77;;;25.90;99.90;;;;;;10418838;28;20204;-87
2022/05/10 09:37:55;;;;;;;6.75;1.92;;;26.20;99.90;;;;;;10430860;28;20228;-85
2022/05/10 09:43:22;;;;;;;6.30;1.92;;;26.10;99.90;;;;;;10425039;28;20266;-85
2022/05/10 09:48:44;;;;;;;13.05;2.15;;;26.50;99.90;;;;;;10411861;28;20254;-88
2022/05/10 09:54:40;;;;;;;27.60;3.28;;;26.40;99.90;;;;;;10424896;28;20542;-87
2022/05/10 10:00:02;;;;;;;2.85;1.80;;;26.70;99.90;;;;;;10424444;28;20200;-86
2022/05/10 10:05:36;;;;;;;3.08;2.00;;;26.80;99.90;;;;;;10427577;28;20309;-85
2022/05/10 10:10:58;;;;;;;17.45;2.53;;;26.90;99.90;;;;;;10400656;28;20216;-85
2022/05/10 10:16:24;;;;;;;1.70;1.30;;;26.70;99.90;;;;;;10396202;28;20523;-84
2022/05/10 10:22:01;;;;;;;11.82;2.50;;;26.50;99.90;;;;;;10395959;28;20205;-88
2022/05/10 10:27:57;;;;;;;6.85;1.98;;;26.30;99.90;;;;;;10396789;28;20292;-84
2022/05/10 10:33:40;;;;;;;4.28;2.08;;;26.40;99.90;;;;;;10363117;28;20260;-84
2022/05/10 10:39:20;;;;;;;35.55;3.25;;;26.80;99.90;;;;;;10349302;28;20211;-87
2022/05/10 10:44:55;;;;;;;4.82;2.20;;;26.70;99.90;;;;;;10362251;28;20213;-86
2022/05/10 10:50:24;;;;;;;6.15;2.40;;;26.60;99.90;;;;;;10392147;28;20234;-88
2022/05/10 10:55:47;;;;;;;7.00;1.90;;;26.50;99.90;;;;;;10398074;28;20286;-87
2022/05/10 11:01:26;;;;;;;7.22;1.80;;;26.70;99.90;;;;;;10443998;28;20216;-87
2022/05/10 11:06:52;;;;;;;3.90;1.95;;;26.80;99.90;;;;;;10390681;28;20212;-85
2022/05/10 11:12:42;;;;;;;2.75;1.60;;;26.60;99.90;;;;;;10420957;28;20211;-83
2022/05/10 11:18:36;;;;;;;14.00;2.03;;;26.60;99.90;;;;;;10437417;28;20193;-85
2022/05/10 11:24:23;;;;;;;19.55;11.43;;;26.70;99.90;;;;;;10421141;28;20200;-85
2022/05/10 11:29:51;;;;;;;10.43;1.98;;;26.30;99.90;;;;;;10420649;28;20207;-84
2022/05/10 11:35:49;;;;;;;5.70;1.80;;;25.70;99.90;;;;;;10420264;28;20271;-82
2022/05/10 11:41:30;;;;;;;2.78;1.67;;;25.70;99.90;;;;;;10407019;28;20208;-88
2022/05/10 11:47:12;;;;;;;4.45;1.75;;;26.00;99.90;;;;;;10406824;28;20590;-82
2022/05/10 11:53:04;;;;;;;5.60;3.35;;;26.20;99.90;;;;;;10420347;28;20204;-83
2022/05/10 11:58:28;;;;;;;3.92;2.13;;;26.00;99.90;;;;;;10445646;28;20450;-85
2022/05/10 12:03:52;;;;;;;8.50;2.53;;;26.10;99.90;;;;;;10397016;28;20502;-86
2022/05/10 12:09:16;;;;;;;9.57;2.50;;;25.70;99.90;;;;;;10409617;28;20403;-87
2022/05/10 12:26:37;;;;;;;9.77;2.92;;;25.40;99.90;;;;;;10415901;28;20200;-87
2022/05/10 12:32:01;;;;;;;12.77;2.20;;;25.00;99.90;;;;;;10419841;28;20672;-86
2022/05/10 12:37:25;;;;;;;5.30;2.15;;;25.00;99.90;;;;;;10433244;28;20286;-87
2022/05/10 12:43:17;;;;;;;8.90;2.47;;;24.80;99.90;;;;;;10416276;28;20208;-90
2022/05/10 12:49:08;;;;;;;17.17;3.42;;;24.90;99.90;;;;;;10418251;28;20206;-85
2022/05/10 12:54:45;;;;;;;7.47;2.42;;;25.00;99.90;;;;;;10431843;28;20234;-88
2022/05/10 13:00:13;;;;;;;7.05;2.55;;;25.20;99.90;;;;;;10418461;28;20192;-86
2022/05/10 13:06:12;;;;;;;22.58;2.95;;;25.30;99.90;;;;;;10400546;28;20259;-89
2022/05/10 13:11:48;;;;;;;5.07;1.92;;;24.70;99.90;;;;;;10404529;28;20212;-85
2022/05/10 13:17:12;;;;;;;6.32;2.00;;;24.60;99.90;;;;;;10409406;28;20231;-84
2022/05/10 13:22:34;;;;;;;5.72;1.95;;;24.50;99.90;;;;;;10440591;28;20188;-93
2022/05/10 13:28:15;;;;;;;12.93;2.25;;;24.40;99.90;;;;;;10425462;28;20199;-81
2022/05/10 13:33:37;;;;;;;7.05;1.90;;;24.40;99.90;;;;;;10420170;28;20244;-81
2022/05/10 13:38:58;;;;;;;6.10;1.80;;;24.40;99.90;;;;;;10394365;28;20215;-86
2022/05/10 13:44:25;;;;;;;9.85;2.88;;;24.00;99.90;;;;;;10438887;28;20219;-83
2022/05/10 13:49:47;;;;;;;10.70;5.05;;;24.00;99.90;;;;;;10422487;28;20223;-86
2022/05/10 13:55:16;;;;;;;2.92;1.80;;;23.90;99.90;;;;;;10423121;28;20258;-88
2022/05/10 14:00:41;;;;;;;4.97;2.08;;;23.70;99.90;;;;;;10439407;28;20215;-89
2022/05/10 14:06:18;;;;;;;5.75;1.98;;;23.60;99.90;;;;;;10406518;28;20421;-91
2022/05/10 14:11:42;;;;;;;4.95;2.40;;;23.70;99.90;;;;;;10442570;28;20392;-83
2022/05/10 14:17:05;;;;;;;4.72;1.98;;;23.70;99.90;;;;;;10424301;28;20246;-87
2022/05/10 14:22:27;;;;;;;11.32;2.50;;;23.50;99.90;;;;;;10382923;28;20499;-87
2022/05/10 14:28:15;;;;;;;8.50;2.08;;;23.40;99.90;;;;;;10400918;28;20212;-84
2022/05/10 14:33:41;;;;;;;6.18;2.42;;;23.30;99.90;;;;;;10409118;28;20534;-84
2022/05/10 14:39:20;;;;;;;3.50;2.17;;;23.10;99.90;;;;;;10422597;28;20207;-89
2022/05/10 14:44:43;;;;;;;5.72;2.17;;;23.00;99.90;;;;;;10410027;28;20275;-84
2022/05/10 14:50:05;;;;;;;3.97;2.33;;;23.00;99.90;;;;;;10414274;28;20247;-81
2022/05/10 14:55:33;;;;;;;11.35;2.53;;;22.90;99.90;;;;;;10420719;28;20228;-90
2022/05/10 15:01:10;;;;;;;6.05;2.42;;;22.80;99.90;;;;;;10417327;28;20268;-84
2022/05/10 15:06:35;;;;;;;4.05;2.10;;;22.50;99.90;;;;;;10423922;28;20244;-83
2022/05/10 15:23:17;;;;;;;21.20;3.85;;;22.10;99.90;;;;;;10440363;28;20192;-88
2022/05/10 15:28:41;;;;;;;5.85;3.00;;;21.90;99.90;;;;;;10411735;28;20196;-83
2022/05/10 15:34:42;;;;;;;4.22;2.25;;;21.80;99.90;;;;;;10410840;28;20417;-85
2022/05/10 15:39:45;;;;;;;6.53;2.70;;;21.70;99.90;;;;;;10425136;28;20365;-85
2022/05/10 15:45:07;;;;;;;9.05;3.00;;;21.60;99.90;;;;;;10438785;28;20226;-83
2022/05/10 15:50:29;;;;;;;7.18;3.00;;;21.50;99.90;;;;;;10438583;28;20192;-84
2022/05/10 15:55:50;;;;;;;10.73;4.43;;;21.40;99.90;;;;;;10424293;28;20232;-86
2022/05/10 16:01:13;;;;;;;8.32;4.75;;;21.30;99.90;;;;;;10376710;28;20279;-85
2022/05/10 16:06:53;;;;;;;5.15;2.28;;;21.30;99.90;;;;;;10415083;28;20515;-85
2022/05/10 16:12:17;;;;;;;4.22;2.40;;;21.20;99.90;;;;;;10407368;28;20189;-85
2022/05/10 16:17:39;;;;;;;8.70;3.40;;;21.20;99.90;;;;;;10410643;28;20227;-84
2022/05/10 16:23:01;;;;;;;6.20;2.78;;;21.20;99.90;;;;;;10449913;28;20199;-84
2022/05/10 16:34:03;;;;;;;9.48;4.70;;;21.20;99.90;;;;;;10435015;28;20271;-83
2022/05/10 16:39:24;;;;;;;20.55;5.00;;;21.10;99.90;;;;;;10436507;28;20381;-83
2022/05/10 16:44:47;;;;;;;5.82;2.67;;;21.00;99.90;;;;;;10423289;28;20230;-84
2022/05/10 16:50:11;;;;;;;6.53;2.50;;;20.90;99.90;;;;;;10435605;28;20484;-84
2022/05/10 16:55:33;;;;;;;5.45;2.88;;;20.80;99.90;;;;;;10422541;28;20573;-84
2022/05/10 17:00:55;;;;;;;5.65;2.70;;;20.80;99.90;;;;;;10435142;28;20502;-84
2022/05/10 17:06:16;;;;;;;5.18;2.85;;;20.70;99.90;;;;;;10422348;28;20215;-83
2022/05/10 17:11:38;;;;;;;5.30;2.78;;;20.50;99.90;;;;;;10381142;28;20423;-82
2022/05/10 17:17:00;;;;;;;9.55;2.90;;;20.50;99.90;;;;;;10426387;28;20220;-83
2022/05/10 17:22:22;;;;;;;6.65;3.20;;;20.40;99.90;;;;;;10435614;28;20245;-83
2022/05/10 17:33:40;;;;;;;5.13;3.25;;;20.30;99.90;;;;;;10377051;28;20296;-82
2022/05/10 17:39:03;;;;;;;6.82;3.10;;;20.10;99.90;;;;;;10391435;28;20224;-83
2022/05/10 17:44:24;;;;;;;6.57;3.80;;;20.10;99.90;;;;;;10377953;28;20193;-83
2022/05/10 17:49:45;;;;;;;8.85;3.78;;;20.00;99.90;;;;;;10361369;28;20454;-83
2022/05/10 17:55:10;;;;;;;14.52;6.30;;;20.00;99.90;;;;;;10378099;28;20236;-83
2022/05/10 18:00:35;;;;;;;10.88;5.88;;;19.90;99.90;;;;;;10363230;28;20400;-83
2022/05/10 18:05:57;;;;;;;7.10;4.55;;;19.80;99.90;;;;;;10411339;28;20219;-83
2022/05/10 18:11:22;;;;;;;5.40;3.55;;;19.70;99.90;;;;;;10442057;28;20562;-82
2022/05/10 18:16:43;;;;;;;6.50;3.65;;;19.60;99.90;;;;;;10442170;28;20270;-82
2022/05/10 18:22:05;;;;;;;5.70;3.67;;;19.50;99.90;;;;;;10441999;28;20188;-83
2022/05/10 18:27:27;;;;;;;6.00;3.72;;;19.40;99.90;;;;;;10427699;28;20196;-84
2022/05/10 18:32:48;;;;;;;8.90;4.32;;;19.20;99.90;;;;;;10440700;28;20557;-83
2022/05/10 18:38:11;;;;;;;7.70;4.20;;;19.20;99.90;;;;;;10412737;28;20532;-82
2022/05/10 18:43:32;;;;;;;8.05;4.65;;;19.10;99.90;;;;;;10443652;28;20239;-83
2022/05/10 18:48:54;;;;;;;9.48;5.32;;;19.10;99.90;;;;;;10413038;28;20219;-83
2022/05/10 18:54:15;;;;;;;11.20;6.28;;;19.00;99.90;;;;;;10440180;28;20192;-83
2022/05/10 18:59:37;;;;;;;8.40;5.43;;;18.90;99.90;;;;;;10441397;28;20204;-83
2022/05/10 19:04:59;;;;;;;10.85;5.82;;;18.80;99.90;;;;;;10411906;28;20254;-82
2022/05/10 19:10:22;;;;;;;12.35;5.90;;;18.70;99.90;;;;;;10426137;28;20212;-83
2022/05/10 19:15:44;;;;;;;12.40;5.10;;;18.70;99.90;;;;;;10439270;28;20232;-82
2022/05/10 19:21:07;;;;;;;6.50;3.70;;;18.60;99.90;;;;;;10425433;28;20192;-83
2022/05/10 19:26:30;;;;;;;5.97;4.18;;;18.50;99.90;;;;;;10424953;28;20270;-83
2022/05/10 19:31:52;;;;;;;6.65;3.80;;;18.50;99.90;;;;;;10438576;28;20411;-83
2022/05/10 19:37:16;;;;;;;7.80;3.67;;;18.40;99.90;;;;;;10425275;28;20603;-83
2022/05/10 19:42:39;;;;;;;4.72;3.47;;;18.30;99.90;;;;;;10424863;28;20231;-83
2022/05/10 19:48:00;;;;;;;4.50;3.28;;;18.20;99.90;;;;;;10410801;28;20323;-83
2022/05/10 19:53:22;;;;;;;10.07;4.35;;;18.20;99.90;;;;;;10438305;28;20195;-83
2022/05/10 19:58:44;;;;;;;8.80;4.63;;;18.10;99.90;;;;;;10450975;28;20510;-83
2022/05/10 20:09:47;;;;;;;10.90;5.68;;;17.90;99.90;;;;;;10437669;28;20208;-83
2022/05/10 20:15:11;;;;;;;12.90;6.40;;;17.80;99.90;;;;;;10437598;28;20222;-82
2022/05/10 20:20:37;;;;;;;10.05;5.53;;;17.80;99.90;;;;;;10423326;28;20196;-83
2022/05/10 20:25:58;;;;;;;11.43;6.30;;;17.60;99.90;;;;;;10422411;28;20488;-83
2022/05/10 20:31:20;;;;;;;9.55;5.50;;;17.60;99.90;;;;;;10436347;28;20196;-83
2022/05/10 20:36:42;;;;;;;7.75;5.22;;;17.50;99.90;;;;;;10437898;28;20541;-82
2022/05/10 20:42:04;;;;;;;7.57;4.55;;;17.50;99.90;;;;;;10422357;28;20192;-82
2022/05/10 20:47:26;;;;;;;10.88;5.43;;;17.40;99.90;;;;;;10436460;28;20207;-82
2022/05/10 20:52:48;;;;;;;13.73;6.70;;;17.30;99.90;;;;;;10408059;28;20199;-81
2022/05/10 20:58:09;;;;;;;15.45;7.72;;;17.30;99.90;;;;;;10421982;28;20232;-83
2022/05/10 21:03:31;;;;;;;14.57;7.10;;;17.30;99.90;;;;;;10410100;28;20213;-83
2022/05/10 21:08:52;;;;;;;12.90;5.85;;;17.20;99.90;;;;;;10435973;28;20200;-83
2022/05/10 21:14:14;;;;;;;9.88;4.70;;;17.20;99.90;;;;;;10435719;28;20287;-81
2022/05/10 21:19:54;;;;;;;9.50;4.80;;;17.10;99.90;;;;;;10424414;28;20206;-81
2022/05/10 21:25:34;;;;;;;7.68;4.75;;;17.10;99.90;;;;;;10408103;28;20250;-83
2022/05/10 21:31:13;;;;;;;7.55;3.95;;;17.00;99.90;;;;;;10435290;28;20427;-82
2022/05/10 21:36:35;;;;;;;4.80;3.30;;;17.00;99.90;;;;;;10421527;28;20220;-83
2022/05/10 21:41:56;;;;;;;6.55;3.67;;;16.90;99.90;;;;;;10429369;28;20195;-84
2022/05/10 21:47:17;;;;;;;6.50;3.53;;;16.90;99.90;;;;;;10443923;28;20200;-83
2022/05/10 21:52:39;;;;;;;7.38;4.05;;;16.90;99.90;;;;;;10429022;28;20242;-83
2022/05/10 21:58:00;;;;;;;6.80;4.53;;;16.90;99.90;;;;;;10415163;28;20227;-84
2022/05/10 22:03:23;;;;;;;9.68;4.88;;;16.80;99.90;;;;;;10416699;28;20210;-84
2022/05/10 22:08:45;;;;;;;14.25;5.30;;;16.80;99.90;;;;;;10414756;28;20243;-83
2022/05/10 22:14:06;;;;;;;10.90;6.57;;;16.80;99.90;;;;;;10443224;28;20446;-83
2022/05/10 22:19:28;;;;;;;13.80;7.15;;;16.80;99.90;;;;;;10442010;28;20270;-83
2022/05/10 22:24:50;;;;;;;9.38;5.47;;;16.70;99.90;;;;;;10428276;28;20514;-82
2022/05/10 22:30:12;;;;;;;10.95;3.78;;;16.70;99.90;;;;;;10427731;28;20192;-83
2022/05/10 22:35:33;;;;;;;11.52;5.57;;;16.70;99.90;;;;;;10429567;28;20234;-82
2022/05/10 22:40:55;;;;;;;10.25;4.90;;;16.70;99.90;;;;;;10441102;28;20187;-82
2022/05/10 22:46:17;;;;;;;9.75;4.97;;;16.70;99.90;;;;;;10442554;28;20262;-82
2022/05/10 22:51:39;;;;;;;14.52;7.30;;;16.60;99.90;;;;;;10425362;28;20196;-82
2022/05/10 22:57:00;;;;;;;7.00;4.57;;;16.60;99.90;;;;;;10412798;28;20519;-83
2022/05/10 23:02:22;;;;;;;7.85;3.97;;;16.60;99.90;;;;;;10414154;28;20200;-83
2022/05/10 23:07:44;;;;;;;8.57;3.88;;;16.60;99.90;;;;;;10426224;28;20210;-83
2022/05/10 23:13:05;;;;;;;9.13;5.20;;;16.50;99.90;;;;;;10426366;28;20478;-83
2022/05/10 23:18:27;;;;;;;10.45;4.30;;;16.50;99.90;;;;;;10428380;28;20246;-83
2022/05/10 23:23:48;;;;;;;5.93;4.07;;;16.50;99.90;;;;;;10423736;28;20545;-82
2022/05/10 23:29:11;;;;;;;7.18;3.50;;;16.40;99.90;;;;;;10411627;28;20199;-82
2022/05/10 23:34:32;;;;;;;10.32;4.97;;;16.40;99.90;;;;;;10438996;28;20239;-83
2022/05/10 23:39:53;;;;;;;10.13;4.20;;;16.40;99.90;;;;;;10439008;28;20233;-83
2022/05/10 23:45:15;;;;;;;6.00;3.55;;;16.40;99.90;;;;;;10438828;28;20202;-82
2022/05/10 23:50:40;;;;;;;6.63;3.35;;;16.40;99.90;;;;;;10424605;28;20191;-82
2022/05/10 23:56:06;;;;;;;8.35;3.67;;;16.40;99.90;;;;;;10410654;28;20461;-83
